Time;durP1;ratioP1;P1;durP2;ratioP2;P2;SDS_P1;SDS_P2;PMS_P1;PMS_P2;Temp;Humidity;BMP_temperature;BMP_pressure;BME280_temperature;BME280_humidity;BME280_pressure;Samples;Min_cycle;Max_cycle;Signal;HPM_P1;HPM_P2
2022/11/13 00:02:22;;;;;;;1.70;1.25;;;;;;;18.67;49.40;102560.34;16122614;19;129639;-42
2022/11/13 00:07:44;;;;;;;1.52;1.20;;;;;;;18.65;49.66;102556.03;16122890;19;129655;-42
2022/11/13 00:13:05;;;;;;;2.05;1.17;;;;;;;18.63;49.82;102547.94;16120976;19;129672;-43
2022/11/13 00:18:31;;;;;;;2.03;1.50;;;;;;;18.60;49.22;102557.53;16121680;19;129439;-42
2022/11/13 00:23:54;;;;;;;1.83;1.42;;;;;;;18.58;49.31;102558.81;16120309;19;130385;-42
2022/11/13 00:29:16;;;;;;;2.92;1.40;;;;;;;18.57;49.62;102559.88;16120853;19;130871;-43
2022/11/13 00:34:38;;;;;;;3.10;1.02;;;;;;;18.54;49.73;102551.97;16119067;19;129707;-42
2022/11/13 00:40:09;;;;;;;2.83;1.10;;;;;;;18.53;49.73;102544.72;16121253;19;129674;-43
2022/11/13 00:45:31;;;;;;;1.42;1.08;;;;;;;18.52;49.53;102543.00;16120594;19;130455;-43
2022/11/13 00:50:53;;;;;;;2.00;1.05;;;;;;;18.49;49.64;102527.63;16123220;19;129598;-43
2022/11/13 00:56:15;;;;;;;1.10;1.00;;;;;;;18.49;49.44;102526.78;16119173;19;129806;-43
2022/11/13 01:01:37;;;;;;;1.55;1.05;;;;;;;18.48;49.49;102514.84;16117704;19;130361;-42
2022/11/13 01:06:59;;;;;;;1.90;1.30;;;;;;;18.46;49.51;102519.72;16122599;19;130941;-43
2022/11/13 01:12:20;;;;;;;1.90;1.15;;;;;;;18.43;49.51;102507.16;16135392;19;129306;-43
2022/11/13 01:17:42;;;;;;;1.20;1.00;;;;;;;18.43;49.45;102496.06;16133756;19;130057;-43
2022/11/13 01:23:04;;;;;;;2.13;1.33;;;;;;;18.41;49.00;102487.09;16135759;19;129128;-43
2022/11/13 01:28:25;;;;;;;1.80;1.60;;;;;;;18.40;49.15;102479.00;16134256;19;129843;-43
2022/11/13 01:33:48;;;;;;;1.85;1.30;;;;;;;18.37;49.33;102480.22;16134161;19;129471;-43
2022/11/13 01:39:11;;;;;;;1.27;1.05;;;;;;;18.36;49.25;102478.50;16133331;19;129842;-42
2022/11/13 01:44:52;;;;;;;2.38;1.50;;;;;;;18.37;49.02;102469.13;16133695;19;129390;-44
2022/11/13 01:50:14;;;;;;;1.83;1.30;;;;;;;18.34;49.19;102465.94;16133067;19;130017;-43
2022/11/13 01:55:35;;;;;;;1.40;1.15;;;;;;;18.32;49.19;102460.63;16128177;19;129762;-42
2022/11/13 02:00:57;;;;;;;2.05;1.20;;;;;;;18.31;49.14;102464.44;16130294;19;129757;-42
2022/11/13 02:06:20;;;;;;;1.70;1.40;;;;;;;18.31;48.83;102458.91;16130094;19;129803;-43
2022/11/13 02:11:42;;;;;;;2.45;1.52;;;;;;;18.28;48.79;102453.75;16130976;19;129603;-43
2022/11/13 02:17:10;;;;;;;1.43;1.30;;;;;;;18.27;48.96;102449.28;16128561;19;130894;-41
2022/11/13 02:22:40;;;;;;;1.80;1.17;;;;;;;18.26;48.73;102430.94;16126597;19;129670;-41
2022/11/13 02:28:01;;;;;;;3.40;1.45;;;;;;;18.25;49.00;102432.00;16130422;19;129594;-43
2022/11/13 02:33:28;;;;;;;1.83;1.17;;;;;;;18.24;48.74;102421.97;16129521;19;130410;-43
2022/11/13 02:38:52;;;;;;;1.88;1.13;;;;;;;18.23;49.08;102421.16;16127982;19;129777;-42
2022/11/13 02:44:14;;;;;;;1.23;1.00;;;;;;;18.22;48.86;102407.47;16129813;19;130475;-43
2022/11/13 02:49:36;;;;;;;1.20;1.00;;;;;;;18.20;48.98;102407.69;16127591;19;129910;-43
2022/11/13 02:54:58;;;;;;;1.77;1.30;;;;;;;18.20;48.71;102402.16;16128274;19;129456;-43
2022/11/13 03:00:19;;;;;;;1.55;1.20;;;;;;;18.20;48.50;102395.78;16125583;19;135232;-42
2022/11/13 03:05:41;;;;;;;2.50;1.60;;;;;;;18.18;48.35;102390.44;16127048;19;129683;-43
2022/11/13 03:11:08;;;;;;;1.88;1.58;;;;;;;18.18;48.63;102381.28;16126352;19;129408;-43
2022/11/13 03:16:30;;;;;;;2.35;1.33;;;;;;;18.15;48.72;102375.09;16125861;19;130223;-42
2022/11/13 03:21:51;;;;;;;2.50;1.42;;;;;;;18.15;48.65;102371.47;16124324;19;129581;-43
2022/11/13 03:27:13;;;;;;;1.63;1.20;;;;;;;18.14;48.22;102373.38;16124638;19;129355;-42
2022/11/13 03:32:35;;;;;;;1.90;1.33;;;;;;;18.13;48.48;102371.66;16124624;19;130291;-43
2022/11/13 03:37:56;;;;;;;1.38;1.20;;;;;;;18.12;48.40;102364.41;16127100;19;129497;-43
2022/11/13 03:43:18;;;;;;;1.67;1.30;;;;;;;18.11;48.26;102359.94;16123264;19;129629;-42
2022/11/13 03:48:40;;;;;;;1.30;1.20;;;;;;;18.11;48.54;102365.47;16121539;19;130172;-43
2022/11/13 03:54:02;;;;;;;2.15;1.20;;;;;;;18.11;48.51;102364.63;16123985;19;130168;-42
2022/11/13 03:59:24;;;;;;;1.45;1.20;;;;;;;18.09;48.29;102362.06;16121153;19;129554;-41
2022/11/13 04:04:46;;;;;;;1.40;1.08;;;;;;;18.09;48.34;102361.22;16120331;19;130325;-42
2022/11/13 04:10:08;;;;;;;1.70;1.30;;;;;;;18.07;48.17;102366.97;16121521;19;128890;-43
2022/11/13 04:15:29;;;;;;;3.28;1.25;;;;;;;18.07;48.42;102361.44;16122963;19;129543;-43
2022/11/13 04:20:51;;;;;;;1.20;1.00;;;;;;;18.07;48.08;102358.66;16126034;19;130122;-43
2022/11/13 04:26:13;;;;;;;1.60;1.20;;;;;;;18.06;47.99;102342.25;16123472;19;130373;-33
2022/11/13 04:31:34;;;;;;;1.52;1.13;;;;;;;18.05;47.86;102338.63;16120107;19;132167;-32
2022/11/13 04:36:56;;;;;;;2.60;1.45;;;;;;;18.03;48.14;102337.13;16124947;19;130085;-33
2022/11/13 04:47:58;;;;;;;3.33;1.33;;;;;;;18.00;47.92;102335.63;16122124;19;129567;-33
2022/11/13 04:53:20;;;;;;;2.15;1.30;;;;;;;17.99;48.06;102336.69;16121856;19;129453;-33
2022/11/13 04:58:42;;;;;;;2.03;1.40;;;;;;;17.98;47.86;102330.28;16120567;19;130184;-33
2022/11/13 05:04:03;;;;;;;1.30;1.10;;;;;;;17.97;47.94;102333.28;16119027;19;129416;-32
2022/11/13 05:09:25;;;;;;;1.67;1.38;;;;;;;17.98;48.23;102332.19;16116581;19;130277;-45
2022/11/13 05:14:47;;;;;;;2.33;1.40;;;;;;;17.97;48.21;102341.59;16114821;19;129306;-32
2022/11/13 05:20:10;;;;;;;1.38;1.20;;;;;;;17.95;47.83;102330.69;16116788;19;130180;-33
2022/11/13 05:25:31;;;;;;;1.35;1.15;;;;;;;17.94;47.71;102325.38;16118239;19;131013;-33
2022/11/13 05:31:01;;;;;;;1.58;1.13;;;;;;;17.92;48.08;102308.13;16114459;19;129533;-33
2022/11/13 05:36:22;;;;;;;1.48;1.15;;;;;;;17.91;48.19;102311.94;16117490;19;129971;-32
2022/11/13 05:41:44;;;;;;;1.63;1.13;;;;;;;17.90;47.71;102311.09;16115190;19;129652;-33
2022/11/13 05:47:06;;;;;;;1.80;1.33;;;;;;;17.91;48.05;102314.72;16115294;19;129626;-32
2022/11/13 05:52:27;;;;;;;1.60;1.20;;;;;;;17.91;48.09;102298.09;16117979;19;129877;-33
2022/11/13 05:57:49;;;;;;;1.85;1.38;;;;;;;17.90;47.84;102296.41;16129331;19;129050;-33
2022/11/13 06:03:11;;;;;;;1.65;1.40;;;;;;;17.88;47.67;102288.31;16131587;19;129941;-32
2022/11/13 06:08:32;;;;;;;1.40;1.20;;;;;;;17.89;47.68;102295.56;16128935;19;129412;-35
2022/11/13 06:13:55;;;;;;;1.92;1.35;;;;;;;17.86;47.63;102284.91;16124918;19;129086;-40
2022/11/13 06:19:17;;;;;;;1.52;1.20;;;;;;;17.87;47.49;102285.72;16125671;19;129981;-33
2022/11/13 06:24:38;;;;;;;1.80;1.38;;;;;;;17.83;47.70;102286.16;16126708;19;129594;-33
2022/11/13 06:30:00;;;;;;;1.83;1.45;;;;;;;17.83;47.71;102277.88;16126638;19;129549;-33
2022/11/13 06:35:22;;;;;;;1.55;1.13;;;;;;;17.83;47.78;102285.31;16128530;19;129605;-33
2022/11/13 06:40:43;;;;;;;1.20;1.10;;;;;;;17.83;47.90;102266.78;16124508;19;130393;-33
2022/11/13 06:46:10;;;;;;;1.40;1.00;;;;;;;17.95;47.35;102269.78;16128833;19;129366;-33
2022/11/13 06:51:32;;;;;;;1.63;1.00;;;;;;;18.34;47.13;102270.06;16127349;19;129450;-32
2022/11/13 06:56:54;;;;;;;4.07;0.98;;;;;;;18.87;46.44;102271.16;16127578;19;129556;-33
2022/11/13 07:02:15;;;;;;;1.10;0.82;;;;;;;19.30;46.15;102262.38;16125546;19;130176;-33
2022/11/13 07:07:37;;;;;;;1.20;1.10;;;;;;;19.55;45.56;102258.84;16127396;19;129674;-32
2022/11/13 07:12:59;;;;;;;1.08;0.90;;;;;;;19.65;45.25;102262.00;16127573;19;129423;-32
2022/11/13 07:18:21;;;;;;;1.45;1.05;;;;;;;19.65;45.29;102253.69;16127986;19;129616;-32
2022/11/13 07:23:47;;;;;;;1.65;1.10;;;;;;;19.60;45.38;102253.47;16125421;19;133861;-33
2022/11/13 07:29:08;;;;;;;1.30;1.10;;;;;;;19.51;45.29;102244.53;16126498;19;130258;-33
2022/11/13 07:34:30;;;;;;;1.60;0.95;;;;;;;20.06;44.19;102239.59;16125118;19;129776;-33
2022/11/13 07:39:52;;;;;;;6.45;1.50;;;;;;;21.29;41.91;102244.69;16123221;19;129547;-33
2022/11/13 07:45:13;;;;;;;3.80;1.60;;;;;;;21.30;41.22;102240.81;16126906;19;129061;-32
2022/11/13 07:50:37;;;;;;;1.85;1.33;;;;;;;21.27;41.37;102244.06;16123214;19;129360;-32
2022/11/13 07:56:00;;;;;;;3.45;2.13;;;;;;;21.25;41.50;102244.28;16123871;19;129603;-32
2022/11/13 08:01:22;;;;;;;6.93;3.38;;;;;;;21.09;41.10;102242.13;16121118;19;130561;-33
2022/11/13 08:06:44;;;;;;;8.82;3.17;;;;;;;20.50;42.48;102251.66;16120768;19;129680;-32
2022/11/13 08:12:06;;;;;;;6.72;4.50;;;;;;;20.18;43.21;102254.47;16122425;19;129175;-32
2022/11/13 08:17:28;;;;;;;5.70;4.50;;;;;;;20.45;42.72;102251.47;16117162;19;128945;-32
2022/11/13 08:22:50;;;;;;;8.27;4.10;;;;;;;20.10;43.63;102254.72;16119120;19;130870;-32
2022/11/13 08:28:12;;;;;;;6.57;3.90;;;;;;;19.76;44.19;102254.06;16122122;19;130495;-32
2022/11/13 08:33:34;;;;;;;8.45;4.25;;;;;;;19.53;45.16;102247.97;16120171;19;130674;-32
2022/11/13 08:38:55;;;;;;;9.45;4.50;;;;;;;19.37;45.43;102240.97;16121022;19;129667;-32
2022/11/13 08:44:17;;;;;;;8.95;3.80;;;;;;;19.26;45.79;102249.16;16121453;19;130080;-33
2022/11/13 08:49:39;;;;;;;6.20;3.85;;;;;;;19.13;46.20;102248.09;16116122;19;129312;-33
2022/11/13 08:55:00;;;;;;;10.13;4.18;;;;;;;19.05;46.69;102243.63;16118932;19;130547;-33
2022/11/13 09:00:22;;;;;;;6.15;3.88;;;;;;;19.00;46.62;102235.09;16119712;19;129590;-33
2022/11/13 09:05:44;;;;;;;11.00;3.83;;;;;;;18.97;47.09;102252.16;16117051;19;128926;-33
2022/11/13 09:11:06;;;;;;;6.45;3.78;;;;;;;18.94;47.35;102251.75;16118499;19;129529;-33
2022/11/13 09:16:27;;;;;;;9.55;3.88;;;;;;;18.89;47.08;102250.47;16117548;19;129788;-33
2022/11/13 09:21:50;;;;;;;5.03;3.33;;;;;;;18.85;47.46;102242.78;16115607;19;130166;-33
2022/11/13 09:27:12;;;;;;;7.00;3.15;;;;;;;18.80;47.12;102234.28;16117410;19;129867;-34
2022/11/13 09:32:33;;;;;;;7.85;3.80;;;;;;;18.74;47.41;102236.84;16131874;19;129526;-33
2022/11/13 09:37:55;;;;;;;5.07;3.15;;;;;;;18.70;47.22;102232.81;16135040;19;129739;-33
2022/11/13 09:43:33;;;;;;;4.25;2.90;;;;;;;18.71;47.67;102223.41;16132176;19;129530;-33
2022/11/13 09:49:05;;;;;;;6.32;3.03;;;;;;;18.70;47.76;102224.50;16131552;19;129615;-33
2022/11/13 09:54:27;;;;;;;7.85;3.38;;;;;;;18.68;47.46;102220.22;16131583;19;129260;-33
2022/11/13 10:00:05;;;;;;;7.40;3.17;;;;;;;18.67;47.64;102216.59;16128706;19;129641;-33
2022/11/13 10:05:33;;;;;;;10.57;3.28;;;;;;;18.65;48.04;102218.72;16130425;19;130267;-33
2022/11/13 10:11:15;;;;;;;6.05;2.85;;;;;;;18.64;47.84;102203.16;16133870;19;129422;-33
2022/11/13 10:16:54;;;;;;;7.97;2.88;;;;;;;18.61;48.29;102198.91;16129669;19;129797;-33
2022/11/13 10:22:25;;;;;;;7.15;2.90;;;;;;;18.62;48.29;102188.66;16126991;19;130954;-33
2022/11/13 10:28:01;;;;;;;5.60;2.83;;;;;;;18.58;48.15;102182.72;16120792;19;131413;-34
2022/11/13 10:33:43;;;;;;;5.60;3.20;;;;;;;18.57;48.22;102177.41;16125745;19;129271;-33
2022/11/13 10:39:07;;;;;;;11.90;3.53;;;;;;;18.58;48.19;102173.56;16122254;19;130980;-34
2022/11/13 10:44:36;;;;;;;8.23;3.50;;;;;;;18.58;48.00;102155.00;16124166;19;129703;-33
2022/11/13 10:50:17;;;;;;;12.40;3.80;;;;;;;18.59;47.66;102150.28;16126722;19;131105;-33
2022/11/13 10:55:40;;;;;;;11.98;3.53;;;;;;;18.59;47.79;102128.13;16123675;19;129719;-33
2022/11/13 11:01:13;;;;;;;13.07;3.03;;;;;;;18.60;47.95;102127.91;16124815;19;131011;-33
2022/11/13 11:06:37;;;;;;;8.07;3.25;;;;;;;18.57;47.85;102121.97;16124271;19;129615;-41
2022/11/13 11:12:24;;;;;;;14.13;3.20;;;;;;;18.58;47.53;102120.91;16126728;19;129576;-41
2022/11/13 11:17:58;;;;;;;5.57;2.78;;;;;;;18.56;47.30;102111.94;16124301;19;130268;-41
2022/11/13 11:24:01;;;;;;;10.25;3.03;;;;;;;18.58;47.73;102104.28;16124622;19;131559;-44
2022/11/13 11:29:38;;;;;;;7.63;3.35;;;;;;;18.58;47.75;102095.97;16126155;19;129829;-43
2022/11/13 11:35:11;;;;;;;8.65;3.33;;;;;;;18.57;47.59;102080.41;16125724;19;131786;-43
2022/11/13 11:40:40;;;;;;;11.73;3.25;;;;;;;18.57;48.06;102072.91;16124517;19;130955;-44
2022/11/13 11:46:03;;;;;;;11.57;2.92;;;;;;;18.57;48.02;102061.00;16124900;19;130129;-42
2022/11/13 11:51:39;;;;;;;9.23;2.92;;;;;;;18.58;47.72;102065.47;16124011;19;130576;-44
2022/11/13 11:57:37;;;;;;;8.70;3.03;;;;;;;18.55;47.83;102060.34;16124358;19;130619;-43
2022/11/13 12:02:58;;;;;;;;;;;;;;;18.46;47.93;102041.19;16118846;19;129352;-43
2022/11/13 12:08:36;;;;;;;9.43;3.42;;;;;;;18.50;47.90;102036.06;16115730;19;129858;-43
2022/11/13 12:14:29;;;;;;;9.15;3.05;;;;;;;18.48;48.04;102031.78;16121565;19;129317;-44
2022/11/13 12:20:24;;;;;;;12.00;2.78;;;;;;;18.45;47.85;102028.41;16119134;19;129609;-43
2022/11/13 12:26:12;;;;;;;10.43;2.70;;;;;;;18.43;47.52;102013.94;16120256;19;130549;-44
2022/11/13 12:31:39;;;;;;;10.57;3.10;;;;;;;18.41;47.84;102010.53;16120803;19;129536;-43
2022/11/13 12:37:08;;;;;;;13.13;3.33;;;;;;;18.42;47.95;101994.72;16122891;19;129050;-43
2022/11/13 12:42:53;;;;;;;6.60;2.75;;;;;;;18.40;47.89;101981.09;16121324;19;130558;-44
2022/11/13 12:48:15;;;;;;;11.52;2.83;;;;;;;18.37;47.49;101964.88;16122651;19;129187;-43
2022/11/13 12:53:52;;;;;;;7.32;2.60;;;;;;;18.38;47.68;101960.22;16117887;19;130335;-42
2022/11/13 12:59:16;;;;;;;11.02;3.00;;;;;;;18.39;47.51;101954.47;16120286;19;129723;-42
2022/11/13 13:05:18;;;;;;;9.07;2.83;;;;;;;18.51;47.40;101942.69;16127570;19;130354;-44
2022/11/13 13:10:51;;;;;;;6.75;2.50;;;;;;;18.64;47.29;101937.09;16135464;19;134613;-43
2022/11/13 13:16:22;;;;;;;7.90;2.33;;;;;;;18.79;46.94;101924.84;16134341;19;129399;-44
2022/11/13 13:21:44;;;;;;;6.18;2.20;;;;;;;18.91;46.78;101923.06;16134848;19;133010;-42
2022/11/13 13:27:24;;;;;;;5.25;2.30;;;;;;;19.02;46.25;101921.47;16135016;19;130057;-43
2022/11/13 13:33:17;;;;;;;5.05;2.00;;;;;;;19.02;46.13;101908.47;16133042;19;130033;-43
2022/11/13 13:38:54;;;;;;;4.40;2.08;;;;;;;19.02;46.28;101911.25;16131057;19;136553;-43
2022/11/13 13:44:34;;;;;;;3.63;2.22;;;;;;;19.00;46.15;101895.91;16134887;19;129778;-43
2022/11/13 13:49:57;;;;;;;1.90;1.58;;;;;;;18.95;46.55;101885.50;16131533;19;129861;-45
2022/11/13 13:55:34;;;;;;;5.32;1.95;;;;;;;18.94;46.46;101885.72;16133503;19;129810;-43
2022/11/13 14:01:02;;;;;;;4.03;1.98;;;;;;;18.89;46.15;101883.63;16132925;19;129659;-44
2022/11/13 14:06:51;;;;;;;2.90;1.70;;;;;;;18.86;46.68;101881.28;16131134;19;135838;-44
2022/11/13 14:12:18;;;;;;;4.47;1.90;;;;;;;18.80;46.31;101879.41;16132136;19;130431;-43
2022/11/13 14:17:40;;;;;;;5.30;1.80;;;;;;;18.75;46.43;101871.78;16128989;19;129854;-44
2022/11/13 14:23:02;;;;;;;3.97;1.80;;;;;;;18.71;46.92;101864.97;16127737;19;130758;-43
2022/11/13 14:28:27;;;;;;;6.18;1.98;;;;;;;18.68;46.83;101865.41;16130539;19;129387;-43
2022/11/13 14:33:49;;;;;;;;;;;;;;;18.61;46.77;101857.16;16126690;19;130360;-44
2022/11/13 14:39:31;;;;;;;7.07;1.88;;;;;;;18.64;46.81;101859.47;16131708;19;129864;-43
2022/11/13 14:45:03;;;;;;;9.80;1.92;;;;;;;18.63;46.83;101852.22;16126542;19;129699;-42
2022/11/13 14:50:27;;;;;;;8.90;2.42;;;;;;;18.63;46.75;101855.00;16126848;19;130150;-43
2022/11/13 14:55:51;;;;;;;5.63;2.20;;;;;;;18.64;46.73;101856.72;16124820;19;129702;-42
2022/11/13 15:01:19;;;;;;;4.45;1.77;;;;;;;18.64;46.82;101851.16;16125907;19;128948;-43
2022/11/13 15:06:41;;;;;;;7.13;1.77;;;;;;;18.60;46.92;101852.69;16124118;19;130755;-43
2022/11/13 15:12:03;;;;;;;5.47;2.15;;;;;;;18.56;46.85;101854.22;16126754;19;131007;-43
2022/11/13 15:17:24;;;;;;;5.28;2.00;;;;;;;18.54;46.77;101853.59;16125970;19;133239;-44
2022/11/13 15:22:46;;;;;;;7.00;1.92;;;;;;;18.51;47.03;101848.47;16119025;19;129450;-43
2022/11/13 15:28:08;;;;;;;4.00;1.63;;;;;;;18.47;47.18;101842.53;16120334;19;130154;-42
2022/11/13 15:33:30;;;;;;;6.80;2.13;;;;;;;18.44;47.13;101838.31;16120437;19;129624;-43
2022/11/13 15:38:52;;;;;;;3.95;2.00;;;;;;;18.42;46.90;101822.94;16117185;19;129698;-44
2022/11/13 15:44:14;;;;;;;2.33;1.50;;;;;;;18.38;46.79;101819.75;16118390;19;130207;-44
2022/11/13 15:49:36;;;;;;;3.13;1.55;;;;;;;18.45;47.08;101812.28;16122429;19;129484;-43
2022/11/13 15:55:00;;;;;;;1.75;1.20;;;;;;;18.73;46.77;101807.41;16122637;19;129734;-44
2022/11/13 16:00:24;;;;;;;2.28;1.45;;;;;;;19.07;46.31;101797.72;16123609;19;129995;-45
2022/11/13 16:05:46;;;;;;;5.00;1.50;;;;;;;19.31;45.80;101781.28;16119515;19;129623;-47
2022/11/13 16:11:13;;;;;;;7.68;1.33;;;;;;;19.42;45.50;101776.06;16120161;19;129707;-47
2022/11/13 16:16:39;;;;;;;8.43;1.70;;;;;;;19.44;45.59;101773.91;16122050;19;130738;-45
2022/11/13 16:22:01;;;;;;;4.93;1.60;;;;;;;19.41;45.20;101766.84;16119856;19;131095;-35
2022/11/13 16:27:31;;;;;;;4.40;1.73;;;;;;;19.36;45.23;101761.19;16121288;19;129803;-35
2022/11/13 16:32:53;;;;;;;6.85;2.50;;;;;;;19.29;45.07;101765.94;16118824;19;129624;-36
2022/11/13 16:38:15;;;;;;;7.78;3.45;;;;;;;19.21;44.67;101767.06;16115391;19;129833;-37
2022/11/13 16:43:37;;;;;;;8.70;3.55;;;;;;;19.14;44.71;101761.56;16116599;19;130661;-37
2022/11/13 16:48:59;;;;;;;9.32;4.20;;;;;;;19.06;44.62;101761.88;16118386;19;130724;-37
2022/11/13 16:54:21;;;;;;;8.82;4.35;;;;;;;19.00;44.47;101766.41;16120338;19;129697;-35
2022/11/13 16:59:43;;;;;;;6.97;3.55;;;;;;;18.97;44.27;101777.13;16119366;19;130520;-36
2022/11/13 17:05:05;;;;;;;9.07;4.05;;;;;;;18.93;44.35;101768.41;16121926;19;135026;-34
2022/11/13 17:10:27;;;;;;;6.20;3.47;;;;;;;18.92;43.93;101755.63;16120621;19;130295;-36
2022/11/13 17:15:53;;;;;;;11.18;3.38;;;;;;;;;;16116434;19;129949;-34
2022/11/13 17:21:15;;;;;;;5.53;3.45;;;;;;;18.92;43.69;101756.47;16114520;19;129333;-33
2022/11/13 17:26:37;;;;;;;6.15;3.13;;;;;;;18.93;43.60;101762.88;16113868;19;129415;-34
2022/11/13 17:31:59;;;;;;;4.80;2.50;;;;;;;18.93;43.72;101751.78;16115962;19;129591;-33
2022/11/13 17:37:21;;;;;;;6.93;4.03;;;;;;;18.97;44.12;101735.53;16115803;19;130080;-33
2022/11/13 17:42:47;;;;;;;12.90;8.30;;;;;;;18.99;44.38;101736.97;16114080;19;129507;-33
2022/11/13 17:48:09;;;;;;;29.38;8.93;;;;;;;19.05;44.50;101738.00;16110739;19;129412;-35
2022/11/13 17:53:31;;;;;;;27.88;8.73;;;;;;;19.11;45.13;101742.63;16131250;19;129242;-34
2022/11/13 17:58:53;;;;;;;19.92;8.07;;;;;;;19.14;45.60;101733.00;16128270;19;130068;-34
2022/11/13 18:04:15;;;;;;;19.98;6.90;;;;;;;19.16;45.75;101728.91;16129306;19;130885;-34
2022/11/13 18:09:36;;;;;;;22.92;8.50;;;;;;;19.22;46.19;101729.94;16128054;19;129914;-33
2022/11/13 18:14:58;;;;;;;18.13;8.57;;;;;;;19.45;46.57;101728.38;16129957;19;129847;-32
2022/11/13 18:20:20;;;;;;;16.85;7.97;;;;;;;19.79;46.27;101728.81;16131376;19;129570;-33
2022/11/13 18:25:42;;;;;;;17.85;8.25;;;;;;;20.10;46.53;101721.34;16128925;19;130323;-33
2022/11/13 18:31:09;;;;;;;21.40;10.73;;;;;;;20.37;46.17;101709.81;16131461;19;130030;-33
2022/11/13 18:36:31;;;;;;;20.27;11.13;;;;;;;20.59;46.10;101697.03;16128027;19;130692;-33
2022/11/13 18:41:57;;;;;;;21.33;9.43;;;;;;;20.79;46.02;101695.88;16127447;19;129481;-33
2022/11/13 18:47:22;;;;;;;21.05;9.65;;;;;;;20.96;45.94;101683.97;16127877;19;132966;-33
2022/11/13 18:52:44;;;;;;;18.58;11.85;;;;;;;21.08;46.03;101690.38;16127143;19;130257;-33
2022/11/13 18:58:05;;;;;;;21.90;10.18;;;;;;;21.15;46.11;101684.69;16127140;19;129336;-33
2022/11/13 19:03:27;;;;;;;21.65;12.63;;;;;;;21.13;46.07;101679.38;16125725;19;129760;-33
2022/11/13 19:09:01;;;;;;;39.33;13.88;;;;;;;21.11;46.16;101666.81;16125469;19;130473;-33
2022/11/13 19:14:23;;;;;;;25.50;12.43;;;;;;;21.02;46.83;101663.53;16126851;19;130799;-33
2022/11/13 19:19:45;;;;;;;25.77;11.98;;;;;;;20.95;47.06;101660.03;16126274;19;130121;-33
2022/11/13 19:25:07;;;;;;;22.60;11.75;;;;;;;20.86;47.42;101646.50;16122854;19;129283;-33
2022/11/13 19:30:29;;;;;;;20.25;11.18;;;;;;;20.79;47.36;101644.94;16124156;19;129932;-33
2022/11/13 19:35:53;;;;;;;19.83;10.00;;;;;;;20.72;47.44;101639.47;16122590;19;130441;-33
2022/11/13 19:41:14;;;;;;;18.25;9.55;;;;;;;20.66;48.12;101634.91;16123474;19;130350;-33
2022/11/13 19:46:36;;;;;;;19.83;9.50;;;;;;;20.57;48.21;101626.91;16122368;19;129720;-33
2022/11/13 19:51:58;;;;;;;15.73;9.55;;;;;;;20.52;48.21;101623.19;16123092;19;130719;-33
2022/11/13 19:57:20;;;;;;;20.95;9.27;;;;;;;20.46;48.20;101625.00;16124896;19;135114;-33
2022/11/13 20:02:41;;;;;;;15.63;9.63;;;;;;;20.41;48.89;101622.09;16123650;19;130357;-33
2022/11/13 20:08:03;;;;;;;16.70;9.85;;;;;;;20.36;48.47;101611.72;16121830;19;129671;-33
2022/11/13 20:13:25;;;;;;;13.07;8.55;;;;;;;20.33;48.63;101603.00;16107400;19;129749;-33
2022/11/13 20:18:47;;;;;;;14.50;8.82;;;;;;;20.31;49.03;101599.63;16108025;19;129270;-33
2022/11/13 20:24:09;;;;;;;13.85;7.97;;;;;;;20.28;49.04;101603.72;16111529;19;129769;-33
2022/11/13 20:29:33;;;;;;;16.17;6.93;;;;;;;20.31;49.32;101606.03;16117508;19;129906;-33
2022/11/13 20:34:55;;;;;;;19.98;7.45;;;;;;;20.40;48.83;101603.75;16120633;19;129326;-33
2022/11/13 20:40:17;;;;;;;14.45;7.20;;;;;;;20.53;48.99;101602.63;16120826;19;129633;-33
2022/11/13 20:45:38;;;;;;;10.43;7.05;;;;;;;20.69;49.11;101601.03;16117868;19;129140;-33
2022/11/13 20:51:18;;;;;;;13.13;7.57;;;;;;;20.83;48.86;101590.53;16120054;19;129654;-33
2022/11/13 20:56:40;;;;;;;24.80;10.82;;;;;;;20.94;48.62;101602.72;16118110;19;131460;-33
2022/11/13 21:02:01;;;;;;;25.35;16.42;;;;;;;20.97;48.37;101591.09;16118378;19;130692;-33
2022/11/13 21:07:23;;;;;;;23.55;13.45;;;;;;;21.00;48.13;101585.88;16116327;19;129273;-33
2022/11/13 21:12:45;;;;;;;22.35;12.45;;;;;;;20.97;48.21;101579.97;16119523;19;129476;-33
2022/11/13 21:18:07;;;;;;;21.13;11.10;;;;;;;20.89;48.14;101572.84;16119859;19;132425;-32
2022/11/13 21:23:29;;;;;;;19.20;9.90;;;;;;;20.79;48.17;101567.94;16114558;19;131109;-32
2022/11/13 21:28:55;;;;;;;17.08;10.23;;;;;;;20.69;48.19;101557.41;16133867;19;130011;-33
2022/11/13 21:34:17;;;;;;;13.05;9.00;;;;;;;20.57;48.60;101548.25;16132867;19;129587;-33
2022/11/13 21:39:38;;;;;;;12.73;8.65;;;;;;;20.48;48.40;101536.66;16132479;19;129485;-33
2022/11/13 21:45:00;;;;;;;11.20;6.72;;;;;;;20.38;48.85;101530.88;16133472;19;129537;-32
2022/11/13 21:50:22;;;;;;;11.40;6.22;;;;;;;20.29;48.54;101536.81;16131849;19;129538;-33
2022/11/13 21:55:50;;;;;;;9.55;6.90;;;;;;;20.21;48.85;101541.88;16131840;19;129724;-32
2022/11/13 22:01:12;;;;;;;11.90;6.88;;;;;;;20.10;48.77;101532.47;16130561;19;131150;-33
2022/11/13 22:06:35;;;;;;;10.63;6.30;;;;;;;20.02;48.79;101530.06;16131967;19;129673;-32
2022/11/13 22:11:57;;;;;;;7.85;5.72;;;;;;;19.93;49.17;101508.19;16126824;19;129576;-33
2022/11/13 22:17:18;;;;;;;9.50;5.38;;;;;;;19.84;48.97;101495.72;16127594;19;129461;-33
2022/11/13 22:22:40;;;;;;;6.82;4.88;;;;;;;19.76;49.40;101487.75;16126121;19;130030;-33
2022/11/13 22:28:02;;;;;;;6.20;4.57;;;;;;;19.68;49.07;101473.16;16129113;19;130112;-33
2022/11/13 22:33:31;;;;;;;8.45;4.10;;;;;;;19.61;48.86;101463.25;16130922;19;129687;-32
2022/11/13 22:38:54;;;;;;;7.60;4.05;;;;;;;19.52;49.18;101459.97;16123621;19;129722;-33
2022/11/13 22:44:16;;;;;;;6.18;4.28;;;;;;;19.46;49.39;101455.38;16127127;19;129177;-33
2022/11/13 22:49:37;;;;;;;6.20;3.65;;;;;;;19.42;49.35;101457.78;16122945;19;129759;-33
2022/11/13 22:54:59;;;;;;;5.00;3.38;;;;;;;19.36;49.23;101450.44;16121948;19;129304;-33
2022/11/13 23:00:21;;;;;;;4.07;2.90;;;;;;;19.31;49.66;101465.00;16122699;19;130052;-33
2022/11/13 23:05:43;;;;;;;5.68;3.58;;;;;;;19.27;49.63;101460.16;16124005;19;130417;-33
2022/11/13 23:11:16;;;;;;;3.30;2.55;;;;;;;19.21;49.69;101460.03;16125795;19;129968;-32
2022/11/13 23:16:38;;;;;;;4.55;2.70;;;;;;;19.17;49.63;101464.31;16124574;19;130429;-33
2022/11/13 23:22:00;;;;;;;3.58;2.50;;;;;;;19.15;49.89;101454.56;16131772;19;130187;-43
2022/11/13 23:27:21;;;;;;;4.10;2.60;;;;;;;19.11;49.83;101443.09;16129182;19;130656;-42
2022/11/13 23:32:43;;;;;;;4.13;2.65;;;;;;;19.07;49.43;101437.19;16125772;19;129533;-43
2022/11/13 23:38:05;;;;;;;5.45;2.30;;;;;;;19.05;49.45;101433.81;16128151;19;130256;-42
2022/11/13 23:43:27;;;;;;;3.65;2.45;;;;;;;19.04;49.68;101426.56;16125648;19;129796;-43
2022/11/13 23:49:09;;;;;;;3.67;2.30;;;;;;;19.01;49.61;101421.50;16122550;19;129682;-42
2022/11/13 23:54:31;;;;;;;3.65;2.10;;;;;;;18.98;49.64;101415.56;16124381;19;129966;-43
2022/11/13 23:59:52;;;;;;;2.70;2.00;;;;;;;18.95;49.46;101405.81;16124362;19;129900;-43
